createdAt,value
2018-06-18T00:01:55.283Z,72.34
2018-06-18T00:04:24.393Z,72.35
2018-06-18T00:06:53.541Z,71.52
2018-06-18T00:09:22.665Z,71.38
2018-06-18T00:11:51.757Z,72.06
2018-06-18T00:14:20.850Z,72.38
2018-06-18T00:16:49.955Z,72.28
2018-06-18T00:19:19.073Z,72.70
2018-06-18T00:21:48.206Z,72.48
2018-06-18T00:24:17.314Z,72.62
2018-06-18T00:26:46.417Z,72.14
2018-06-18T00:29:15.597Z,73.20
2018-06-18T00:31:44.773Z,72.40
2018-06-18T00:34:13.892Z,73.09
2018-06-18T00:36:42.977Z,72.77
2018-06-18T00:39:12.085Z,73.95
2018-06-18T00:41:41.178Z,72.95
2018-06-18T00:44:10.273Z,72.41
2018-06-18T00:46:39.417Z,72.75
2018-06-18T00:49:08.477Z,72.01
2018-06-18T00:51:37.573Z,71.99
2018-06-18T00:54:06.679Z,72.55
2018-06-18T00:56:35.790Z,72.11
2018-06-18T00:59:04.933Z,72.79
2018-06-18T01:01:34.040Z,72.55
2018-06-18T01:04:03.149Z,70.72
2018-06-18T01:06:32.258Z,72.03
2018-06-18T01:09:01.385Z,71.21
2018-06-18T01:11:30.517Z,71.34
2018-06-18T01:13:59.602Z,71.95
2018-06-18T01:16:28.730Z,72.65
2018-06-18T01:18:57.822Z,71.44
2018-06-18T01:21:26.909Z,71.40
2018-06-18T01:23:59.525Z,72.00
2018-06-18T01:26:28.714Z,72.52
2018-06-18T01:28:58.123Z,73.05
2018-06-18T01:31:27.226Z,72.07
2018-06-18T01:33:59.810Z,73.43
2018-06-18T01:36:28.894Z,72.28
2018-06-18T01:38:58.006Z,71.74
2018-06-18T01:41:27.111Z,72.06
2018-06-18T01:43:56.217Z,71.68
2018-06-18T01:46:26.929Z,72.28
2018-06-18T01:48:56.017Z,71.66
2018-06-18T01:51:25.113Z,71.96
2018-06-18T01:53:54.209Z,71.75
2018-06-18T01:56:23.336Z,72.17
2018-06-18T01:58:52.437Z,71.19
2018-06-18T02:01:21.609Z,72.18
2018-06-18T02:03:50.725Z,72.26
2018-06-18T02:06:19.850Z,72.80
2018-06-18T02:08:48.966Z,72.37
2018-06-18T02:11:18.132Z,72.86
2018-06-18T02:13:47.326Z,72.61
2018-06-18T02:16:17.702Z,73.68
2018-06-18T02:18:46.776Z,73.12
2018-06-18T02:21:16.006Z,72.25
2018-06-18T02:23:45.116Z,72.71
2018-06-18T02:26:14.227Z,72.08
2018-06-18T02:28:48.637Z,71.86
2018-06-18T02:31:23.161Z,71.73
2018-06-18T02:33:57.410Z,71.57
2018-06-18T02:37:33.481Z,72.24
2018-06-18T02:40:07.994Z,73.47
2018-06-18T02:42:37.105Z,74.02
2018-06-18T02:45:06.205Z,73.76
2018-06-18T02:47:35.309Z,73.00
2018-06-18T02:50:04.447Z,71.49
2018-06-18T02:52:33.558Z,71.32
2018-06-18T02:55:02.667Z,70.59
2018-06-18T02:57:31.773Z,70.56
2018-06-18T03:00:00.909Z,71.44
2018-06-18T03:02:30.060Z,71.13
2018-06-18T03:04:59.158Z,71.25
2018-06-18T03:07:28.263Z,71.00
2018-06-18T03:09:57.363Z,71.21
2018-06-18T03:12:26.481Z,71.94
2018-06-18T03:14:55.579Z,72.26
2018-06-18T03:17:24.659Z,71.48
2018-06-18T03:19:59.278Z,71.04
2018-06-18T03:22:33.795Z,70.57
2018-06-18T03:25:08.285Z,71.30
2018-06-18T03:27:42.657Z,71.68
2018-06-18T03:30:11.767Z,71.88
2018-06-18T03:32:41.339Z,71.56
2018-06-18T03:35:10.713Z,72.05
2018-06-18T03:37:39.858Z,72.18
2018-06-18T03:40:09.178Z,71.39
2018-06-18T03:42:38.301Z,72.08
2018-06-18T03:45:11.157Z,71.61
2018-06-18T03:47:40.241Z,71.03
2018-06-18T03:50:09.343Z,70.62
2018-06-18T03:52:38.445Z,71.35
2018-06-18T03:55:12.357Z,70.39
2018-06-18T03:57:41.481Z,70.77
2018-06-18T04:00:10.937Z,71.81
2018-06-18T04:02:50.992Z,71.65
2018-06-18T04:05:25.450Z,71.92
2018-06-18T04:07:57.154Z,70.90
2018-06-18T04:10:32.814Z,71.45
2018-06-18T04:13:02.019Z,71.60
2018-06-18T04:15:31.286Z,70.82
2018-06-18T04:18:00.433Z,69.72
2018-06-18T04:20:42.511Z,70.95
2018-06-18T04:23:11.599Z,70.84
2018-06-18T04:25:40.713Z,70.08
2018-06-18T04:28:09.880Z,69.64
2018-06-18T04:30:38.985Z,69.63
2018-06-18T04:33:08.725Z,70.08
2018-06-18T04:35:37.852Z,69.88
2018-06-18T04:38:06.949Z,68.76
2018-06-18T04:40:36.055Z,68.62
2018-06-18T04:43:10.479Z,68.62
2018-06-18T04:45:42.393Z,69.07
2018-06-18T04:48:16.690Z,68.97
2018-06-18T04:50:51.061Z,68.19
2018-06-18T04:53:20.225Z,68.55
2018-06-18T04:55:49.374Z,67.97
2018-06-18T04:58:18.501Z,68.51
2018-06-18T05:01:11.998Z,67.59
2018-06-18T05:03:41.122Z,68.77
2018-06-18T05:06:10.249Z,67.75
2018-06-18T05:08:58.063Z,67.75
2018-06-18T05:11:27.191Z,67.54
2018-06-18T05:13:56.294Z,67.81
2018-06-18T05:16:25.450Z,67.88
2018-06-18T05:18:54.554Z,68.06
2018-06-18T05:21:23.668Z,68.25
2018-06-18T05:23:52.790Z,68.20
2018-06-18T05:26:22.859Z,67.21
2018-06-18T05:28:52.311Z,67.72
2018-06-18T05:31:21.514Z,66.98
2018-06-18T05:33:50.665Z,67.95
2018-06-18T05:36:19.761Z,68.27
2018-06-18T05:38:49.037Z,67.60
2018-06-18T05:41:18.153Z,67.73
2018-06-18T05:43:47.309Z,67.26
2018-06-18T05:46:16.447Z,66.89
2018-06-18T05:48:45.577Z,67.30
2018-06-18T05:51:14.677Z,66.52
2018-06-18T05:53:43.800Z,65.63
2018-06-18T05:56:12.941Z,66.81
2018-06-18T05:58:42.106Z,67.03
2018-06-18T06:01:11.222Z,66.33
2018-06-18T06:03:40.361Z,66.32
2018-06-18T06:06:09.568Z,66.62
2018-06-18T06:08:38.617Z,65.83
2018-06-18T06:11:07.852Z,66.79
2018-06-18T06:13:36.945Z,66.39
2018-06-18T06:16:06.106Z,65.60
2018-06-18T06:18:35.205Z,66.98
2018-06-18T06:21:07.723Z,65.87
2018-06-18T06:23:37.342Z,66.56
2018-06-18T06:26:06.500Z,65.74
2018-06-18T06:28:35.709Z,65.08
2018-06-18T06:31:04.853Z,65.34
2018-06-18T06:33:33.995Z,64.40
2018-06-18T06:36:03.677Z,64.63
2018-06-18T06:38:32.810Z,64.92
2018-06-18T06:41:01.938Z,65.24
2018-06-18T06:43:31.049Z,65.43
2018-06-18T06:46:00.170Z,65.21
2018-06-18T06:48:29.321Z,64.29
2018-06-18T06:50:58.417Z,64.66
2018-06-18T06:53:27.533Z,64.63
2018-06-18T06:55:56.631Z,63.78
2018-06-18T06:58:25.733Z,63.95
2018-06-18T07:00:54.831Z,64.27
2018-06-18T07:03:23.954Z,63.88
2018-06-18T07:05:53.085Z,63.77
2018-06-18T07:08:22.181Z,63.15
2018-06-18T07:10:51.294Z,64.55
2018-06-18T07:13:20.414Z,64.08
2018-06-18T07:15:49.556Z,63.43
2018-06-18T07:18:18.670Z,64.38
2018-06-18T07:20:47.790Z,63.68
2018-06-18T07:23:16.921Z,63.46
2018-06-18T07:25:46.048Z,64.37
2018-06-18T07:28:15.189Z,64.97
2018-06-18T07:30:44.284Z,64.78
2018-06-18T07:33:13.381Z,62.72
2018-06-18T07:35:42.470Z,63.16
2018-06-18T07:38:11.589Z,62.94
2018-06-18T07:40:40.686Z,63.56
2018-06-18T07:43:09.834Z,63.83
2018-06-18T07:45:39.035Z,63.71
2018-06-18T07:48:08.121Z,65.22
2018-06-18T07:50:37.221Z,64.25
2018-06-18T07:53:06.321Z,65.11
2018-06-18T07:55:35.425Z,63.31
2018-06-18T07:58:04.649Z,63.68
2018-06-18T08:00:33.770Z,63.99
2018-06-18T08:03:02.892Z,62.66
2018-06-18T08:05:31.990Z,62.68
2018-06-18T08:08:01.118Z,63.26
2018-06-18T08:10:30.277Z,62.29
2018-06-18T08:12:59.419Z,62.13
2018-06-18T08:15:28.520Z,61.99
2018-06-18T08:17:57.633Z,62.20
2018-06-18T08:20:26.743Z,61.98
2018-06-18T08:22:55.857Z,61.18
2018-06-18T08:25:24.977Z,61.14
2018-06-18T08:27:54.091Z,61.21
2018-06-18T08:30:23.173Z,61.29
2018-06-18T08:32:52.289Z,60.38
2018-06-18T08:35:21.451Z,59.83
2018-06-18T08:37:50.589Z,60.55
2018-06-18T08:40:19.742Z,59.43
2018-06-18T08:42:48.867Z,61.18
2018-06-18T08:45:18.030Z,60.20
2018-06-18T08:47:47.181Z,61.19
2018-06-18T08:50:21.433Z,59.63
2018-06-18T08:52:55.732Z,60.40
2018-06-18T08:55:30.081Z,59.03
2018-06-18T08:58:04.481Z,59.11
2018-06-18T09:00:38.738Z,60.26
2018-06-18T09:03:11.647Z,59.30
2018-06-18T09:05:43.041Z,59.41
2018-06-18T09:08:12.194Z,59.58
2018-06-18T09:10:41.325Z,58.46
2018-06-18T09:13:10.419Z,59.04
2018-06-18T09:15:39.541Z,58.74
2018-06-18T09:18:08.661Z,58.49
2018-06-18T09:20:37.870Z,58.90
2018-06-18T09:23:09.220Z,58.46
2018-06-18T09:28:10.630Z,58.72
2018-06-18T09:30:39.728Z,57.04
2018-06-18T09:33:08.838Z,57.67
2018-06-18T09:35:37.981Z,56.37
2018-06-18T09:38:07.089Z,56.60
2018-06-18T09:40:36.185Z,57.62
2018-06-18T09:43:05.323Z,56.82
2018-06-18T09:45:34.438Z,57.17
2018-06-18T09:48:03.567Z,57.31
2018-06-18T09:50:37.921Z,57.82
2018-06-18T09:53:12.499Z,56.33
2018-06-18T09:56:45.551Z,57.74
2018-06-18T09:59:20.017Z,57.00
2018-06-18T10:01:49.161Z,56.18
2018-06-18T10:04:18.291Z,56.62
2018-06-18T10:06:47.422Z,56.56
2018-06-18T10:09:16.522Z,56.26
2018-06-18T10:11:45.662Z,56.46
2018-06-18T10:14:14.770Z,55.82
2018-06-18T10:16:43.866Z,56.28
2018-06-18T10:19:13.024Z,55.79
2018-06-18T10:21:42.066Z,56.20
2018-06-18T10:24:11.276Z,55.94
2018-06-18T10:26:40.326Z,56.06
2018-06-18T10:29:09.437Z,56.09
2018-06-18T10:31:38.550Z,58.47
2018-06-18T10:34:12.806Z,56.80
2018-06-18T10:36:47.402Z,56.90
2018-06-18T10:39:21.872Z,56.98
2018-06-18T10:41:56.538Z,57.52
2018-06-18T10:44:25.631Z,57.16
2018-06-18T10:46:54.726Z,57.18
2018-06-18T10:49:23.828Z,55.95
2018-06-18T10:51:52.920Z,56.92
2018-06-18T10:54:22.014Z,55.71
2018-06-18T10:56:51.167Z,55.38
2018-06-18T10:59:20.281Z,55.51
2018-06-18T11:01:49.402Z,53.62
2018-06-18T11:04:23.790Z,52.98
2018-06-18T11:06:52.918Z,53.95
2018-06-18T11:09:22.989Z,52.81
2018-06-18T11:11:52.904Z,52.22
2018-06-18T11:14:22.050Z,51.71
2018-06-18T11:17:53.898Z,51.70
2018-06-18T11:20:28.185Z,51.40
2018-06-18T11:23:02.697Z,49.96
2018-06-18T11:25:37.001Z,51.29
2018-06-18T11:28:06.127Z,51.58
2018-06-18T11:30:35.285Z,51.31
2018-06-18T11:33:04.472Z,51.56
2018-06-18T11:35:33.589Z,51.06
2018-06-18T11:38:02.689Z,50.20
2018-06-18T11:40:31.829Z,51.62
2018-06-18T11:43:00.947Z,51.70
2018-06-18T11:45:30.057Z,52.27
2018-06-18T11:48:09.881Z,51.33
2018-06-18T11:50:39.006Z,52.30
2018-06-18T11:53:08.102Z,53.32
2018-06-18T11:55:38.254Z,53.42
2018-06-18T11:58:07.354Z,53.24
2018-06-18T12:00:41.746Z,54.17
2018-06-18T12:03:16.174Z,53.87
2018-06-18T12:05:50.511Z,53.52
2018-06-18T12:08:24.739Z,52.63
2018-06-18T12:10:53.867Z,53.62
2018-06-18T12:13:23.038Z,54.82
2018-06-18T12:15:52.132Z,54.81
2018-06-18T12:18:21.242Z,53.98
2018-06-18T12:20:50.366Z,56.00
2018-06-18T12:23:19.445Z,54.99
2018-06-18T12:25:48.587Z,55.68
2018-06-18T12:28:17.714Z,55.49
2018-06-18T12:30:46.812Z,55.12
2018-06-18T12:33:15.907Z,54.86
2018-06-18T12:35:45.035Z,55.23
2018-06-18T12:38:14.171Z,54.66
2018-06-18T12:40:43.257Z,55.32
2018-06-18T12:43:13.434Z,56.41
2018-06-18T12:45:48.834Z,55.12
2018-06-18T12:48:23.372Z,55.44
2018-06-18T12:50:57.616Z,56.18
2018-06-18T12:53:32.145Z,55.75
2018-06-18T12:56:06.569Z,55.18
2018-06-18T12:58:35.661Z,55.35
2018-06-18T13:01:04.829Z,55.26
2018-06-18T13:03:33.918Z,56.42
2018-06-18T13:06:06.901Z,56.39
2018-06-18T13:08:36.009Z,56.99
2018-06-18T13:11:05.110Z,57.56
2018-06-18T13:13:34.360Z,57.37
2018-06-18T13:16:03.465Z,56.06
2018-06-18T13:18:32.561Z,56.21
2018-06-18T13:21:01.668Z,57.29
2018-06-18T13:23:30.753Z,56.26
2018-06-18T13:25:59.859Z,57.67
2018-06-18T13:28:28.970Z,56.42
2018-06-18T13:30:58.105Z,56.46
2018-06-18T13:33:27.222Z,56.75
2018-06-18T13:35:56.318Z,57.42
2018-06-18T13:38:30.569Z,57.67
2018-06-18T13:41:05.030Z,58.85
2018-06-18T13:43:43.697Z,57.50
2018-06-18T13:46:30.206Z,58.58
2018-06-18T13:48:59.389Z,59.28
2018-06-18T13:51:29.018Z,60.27
2018-06-18T13:53:58.812Z,62.90
2018-06-18T13:56:28.233Z,64.57
2018-06-18T13:58:57.630Z,66.34
2018-06-18T14:01:26.717Z,67.28
2018-06-18T14:03:55.825Z,66.44
2018-06-18T14:06:24.920Z,68.54
2018-06-18T14:08:54.033Z,68.72
2018-06-18T14:11:23.130Z,67.48
2018-06-18T14:13:52.355Z,68.06
2018-06-18T14:16:21.393Z,68.23
2018-06-18T14:18:50.489Z,68.00
2018-06-18T14:21:19.592Z,67.99
2018-06-18T14:23:48.726Z,67.91
2018-06-18T14:26:17.822Z,67.10
2018-06-18T14:28:46.913Z,67.47
2018-06-18T14:31:21.330Z,68.36
2018-06-18T14:33:55.782Z,67.07
2018-06-18T14:36:30.294Z,68.27
2018-06-18T14:39:04.848Z,65.88
2018-06-18T14:41:34.072Z,66.30
2018-06-18T14:44:03.393Z,65.68
2018-06-18T14:46:33.592Z,67.02
2018-06-18T14:49:03.049Z,67.31
2018-06-18T14:51:32.213Z,67.96
2018-06-18T14:54:01.639Z,67.05
2018-06-18T14:56:34.902Z,67.18
2018-06-18T14:59:12.267Z,66.95
2018-06-18T15:01:41.395Z,67.39
2018-06-18T15:04:10.494Z,67.66
2018-06-18T15:06:39.613Z,67.14
2018-06-18T15:09:10.764Z,66.70
2018-06-18T15:11:40.231Z,66.83
2018-06-18T15:14:09.386Z,64.42
2018-06-18T15:16:38.538Z,67.07
2018-06-18T15:19:07.660Z,66.29
2018-06-18T15:21:41.057Z,65.63
2018-06-18T15:24:13.372Z,65.72
2018-06-18T15:26:42.513Z,64.22
2018-06-18T15:29:11.890Z,65.65
2018-06-18T15:31:41.026Z,65.12
2018-06-18T15:34:10.153Z,65.10
2018-06-18T15:36:39.261Z,64.18
2018-06-18T15:39:09.954Z,62.96
2018-06-18T15:41:39.054Z,62.05
2018-06-18T15:44:08.291Z,60.94
2018-06-18T15:46:37.313Z,60.63
2018-06-18T15:49:06.481Z,59.89
2018-06-18T15:51:35.610Z,61.29
2018-06-18T15:54:04.722Z,61.54
2018-06-18T15:56:33.862Z,60.39
2018-06-18T15:59:03.133Z,59.62
2018-06-18T16:01:32.487Z,59.86
2018-06-18T16:04:05.585Z,59.85
2018-06-18T16:06:34.673Z,58.69
2018-06-18T16:09:04.676Z,58.67
2018-06-18T16:11:33.784Z,58.99
2018-06-18T16:14:02.884Z,59.49
2018-06-18T16:16:32.024Z,58.25
2018-06-18T16:19:01.133Z,58.12
2018-06-18T16:21:30.237Z,59.24
2018-06-18T16:23:59.356Z,59.38
2018-06-18T16:26:28.437Z,58.80
2018-06-18T16:28:57.541Z,59.44
2018-06-18T16:31:26.753Z,58.59
2018-06-18T16:33:55.857Z,58.50
2018-06-18T16:36:25.030Z,57.85
2018-06-18T16:38:54.178Z,57.37
2018-06-18T16:41:23.303Z,56.94
2018-06-18T16:43:52.461Z,57.31
2018-06-18T16:46:21.632Z,57.94
2018-06-18T16:48:50.858Z,57.34
2018-06-18T16:51:20.010Z,56.31
2018-06-18T16:53:49.136Z,57.18
2018-06-18T16:56:19.393Z,56.26
2018-06-18T16:58:48.602Z,56.20
2018-06-18T17:01:17.830Z,56.29
2018-06-18T17:03:47.292Z,55.93
2018-06-18T17:06:16.457Z,57.10
2018-06-18T17:08:45.557Z,56.16
2018-06-18T17:11:14.720Z,56.79
2018-06-18T17:13:43.817Z,55.83
2018-06-18T17:16:13.006Z,56.21
2018-06-18T17:18:42.145Z,57.52
2018-06-18T17:21:11.294Z,57.47
2018-06-18T17:23:40.414Z,57.47
2018-06-18T17:26:09.558Z,57.81
2018-06-18T17:28:38.659Z,57.69
2018-06-18T17:31:08.087Z,56.49
2018-06-18T17:33:37.460Z,56.51
2018-06-18T17:36:06.964Z,57.56
2018-06-18T17:38:36.061Z,56.47
2018-06-18T17:41:05.417Z,58.02
2018-06-18T17:43:36.541Z,58.08
2018-06-18T17:46:05.685Z,57.22
2018-06-18T17:48:34.854Z,58.47
2018-06-18T17:51:03.957Z,58.05
2018-06-18T17:53:33.105Z,57.88
2018-06-18T17:56:02.210Z,57.30
2018-06-18T17:58:31.418Z,56.99
2018-06-18T18:01:00.508Z,57.33
2018-06-18T18:03:29.606Z,58.04
2018-06-18T18:05:58.787Z,58.51
2018-06-18T18:08:27.864Z,57.33
2018-06-18T18:10:56.954Z,57.68
2018-06-18T18:13:26.215Z,58.80
2018-06-18T18:15:55.282Z,58.19
2018-06-18T18:18:24.462Z,59.50
2018-06-18T18:20:53.548Z,59.91
2018-06-18T18:23:22.662Z,58.41
2018-06-18T18:25:51.898Z,59.37
2018-06-18T18:28:20.993Z,59.92
2018-06-18T18:30:50.209Z,59.65
2018-06-18T18:33:19.373Z,58.94
2018-06-18T18:35:48.590Z,59.18
2018-06-18T18:38:17.686Z,59.00
2018-06-18T18:40:46.855Z,58.94
2018-06-18T18:43:15.973Z,60.44
2018-06-18T18:45:45.757Z,59.47
2018-06-18T18:48:14.910Z,60.60
2018-06-18T18:50:44.002Z,60.39
2018-06-18T18:53:13.106Z,59.78
2018-06-18T18:55:56.921Z,60.33
2018-06-18T18:59:36.540Z,61.22
2018-06-18T19:02:05.729Z,61.37
2018-06-18T19:04:54.407Z,61.15
2018-06-18T19:07:31.310Z,60.07
2018-06-18T19:10:09.694Z,60.21
2018-06-18T19:12:39.093Z,60.55
2018-06-18T19:15:08.813Z,60.72
2018-06-18T19:17:38.190Z,60.20
2018-06-18T19:20:12.798Z,61.56
2018-06-18T19:22:46.885Z,62.05
2018-06-18T19:25:16.150Z,61.93
2018-06-18T19:27:45.186Z,61.81
2018-06-18T19:30:14.409Z,61.81
2018-06-18T19:32:45.637Z,62.07
2018-06-18T19:35:14.766Z,62.56
2018-06-18T19:37:43.848Z,62.37
2018-06-18T19:40:12.957Z,62.13
2018-06-18T19:42:42.166Z,62.87
2018-06-18T19:45:12.842Z,62.96
2018-06-18T19:47:48.590Z,63.17
2018-06-18T19:50:18.233Z,63.12
2018-06-18T19:52:47.349Z,63.78
2018-06-18T19:55:22.541Z,63.39
2018-06-18T19:57:51.693Z,64.64
2018-06-18T20:00:22.159Z,64.38
2018-06-18T20:02:51.285Z,64.49
2018-06-18T20:05:20.507Z,63.60
2018-06-18T20:07:59.133Z,63.75
2018-06-18T20:10:28.451Z,63.85
2018-06-18T20:12:57.562Z,63.76
2018-06-18T20:15:26.895Z,62.99
2018-06-18T20:17:55.996Z,63.25
2018-06-18T20:20:25.094Z,64.35
2018-06-18T20:22:54.249Z,64.14
2018-06-18T20:25:26.714Z,64.32
2018-06-18T20:27:55.765Z,64.90
2018-06-18T20:30:30.994Z,63.84
2018-06-18T20:33:00.225Z,64.05
2018-06-18T20:35:33.647Z,64.50
2018-06-18T20:38:02.752Z,64.53
2018-06-18T20:40:31.942Z,63.71
2018-06-18T20:43:01.029Z,63.49
2018-06-18T20:45:30.524Z,63.66
2018-06-18T20:47:59.581Z,64.21
2018-06-18T20:50:28.741Z,64.46
2018-06-18T20:52:57.846Z,64.40
2018-06-18T20:55:26.941Z,64.36
2018-06-18T20:57:56.195Z,63.62
2018-06-18T21:00:25.301Z,64.08
2018-06-18T21:02:54.571Z,63.89
2018-06-18T21:05:23.816Z,64.82
2018-06-18T21:07:52.960Z,64.17
2018-06-18T21:10:22.118Z,64.58
2018-06-18T21:12:51.282Z,64.56
2018-06-18T21:15:20.599Z,65.31
2018-06-18T21:17:49.698Z,64.37
2018-06-18T21:20:18.874Z,65.80
2018-06-18T21:22:48.034Z,65.61
2018-06-18T21:25:17.154Z,65.43
2018-06-18T21:27:46.301Z,65.96
2018-06-18T21:30:15.419Z,66.16
2018-06-18T21:32:44.509Z,65.32
2018-06-18T21:35:14.017Z,65.74
2018-06-18T21:37:43.108Z,65.97
2018-06-18T21:40:12.266Z,66.25
2018-06-18T21:42:41.346Z,66.06
2018-06-18T21:45:17.581Z,65.77
2018-06-18T21:47:47.265Z,65.64
2018-06-18T21:50:16.709Z,66.98
2018-06-18T21:52:45.925Z,66.94
2018-06-18T21:55:15.378Z,67.30
2018-06-18T21:57:44.565Z,66.82
2018-06-18T22:00:18.761Z,66.52
2018-06-18T22:02:48.462Z,66.85
2018-06-18T22:05:17.569Z,67.15
2018-06-18T22:07:46.729Z,68.05
2018-06-18T22:10:15.927Z,67.53
2018-06-18T22:12:45.032Z,68.21
2018-06-18T22:15:14.186Z,68.12
2018-06-18T22:17:43.325Z,68.12
2018-06-18T22:20:12.478Z,69.16
2018-06-18T22:22:41.586Z,69.09
2018-06-18T22:25:10.717Z,68.56
2018-06-18T22:27:39.897Z,69.10
2018-06-18T22:30:08.981Z,70.13
2018-06-18T22:32:38.141Z,69.91
2018-06-18T22:35:07.478Z,69.60
2018-06-18T22:37:36.650Z,69.67
2018-06-18T22:40:05.785Z,69.68
2018-06-18T22:42:34.875Z,69.70
2018-06-18T22:45:04.247Z,70.23
2018-06-18T22:47:33.393Z,70.20
2018-06-18T22:50:02.529Z,69.89
2018-06-18T22:52:31.661Z,69.70
2018-06-18T22:55:00.755Z,70.83
2018-06-18T22:57:29.876Z,69.46
2018-06-18T22:59:58.989Z,69.71
2018-06-18T23:02:31.064Z,69.92
2018-06-18T23:05:00.169Z,70.12
2018-06-18T23:07:29.337Z,70.93
2018-06-18T23:09:58.457Z,70.41
2018-06-18T23:12:34.755Z,69.51
2018-06-18T23:15:03.986Z,69.27
2018-06-18T23:17:33.085Z,68.91
2018-06-18T23:20:02.476Z,70.43
2018-06-18T23:22:33.155Z,70.25
2018-06-18T23:25:02.281Z,70.63
2018-06-18T23:27:31.486Z,70.70
2018-06-18T23:30:02.023Z,70.35
2018-06-18T23:32:31.146Z,70.85
2018-06-18T23:35:00.320Z,69.95
2018-06-18T23:37:29.562Z,71.23
2018-06-18T23:39:58.641Z,71.17
2018-06-18T23:42:27.745Z,70.17
2018-06-18T23:44:56.894Z,71.59
2018-06-18T23:47:26.010Z,70.68
2018-06-18T23:49:55.121Z,71.92
2018-06-18T23:52:24.293Z,71.83
2018-06-18T23:54:53.533Z,71.43
2018-06-18T23:57:22.629Z,71.11
2018-06-18T23:59:51.830Z,71.26
